sensor_id;sensor_type;location;lat;lon;timestamp;P1;durP1;ratioP1;P2;durP2;ratioP2
67378;SDS011;54262;44.642;-0.974;2022-09-09T00:00:06;1.20;;;1.10;;
67378;SDS011;54262;44.642;-0.974;2022-09-09T00:02:32;2.63;;;1.27;;
67378;SDS011;54262;44.642;-0.974;2022-09-09T00:05:00;1.90;;;1.40;;
67378;SDS011;54262;44.642;-0.974;2022-09-09T00:07:34;1.33;;;1.23;;
67378;SDS011;54262;44.642;-0.974;2022-09-09T00:10:24;5.78;;;1.48;;
67378;SDS011;54262;44.642;-0.974;2022-09-09T00:15:31;1.38;;;0.95;;
67378;SDS011;54262;44.642;-0.974;2022-09-09T00:20:32;2.15;;;1.20;;
67378;SDS011;54262;44.642;-0.974;2022-09-09T00:28:17;1.33;;;1.20;;
67378;SDS011;54262;44.642;-0.974;2022-09-09T00:30:43;1.30;;;1.20;;
67378;SDS011;54262;44.642;-0.974;2022-09-09T00:33:13;1.27;;;0.98;;
67378;SDS011;54262;44.642;-0.974;2022-09-09T00:38:47;2.10;;;1.20;;
67378;SDS011;54262;44.642;-0.974;2022-09-09T00:43:43;1.55;;;1.25;;
67378;SDS011;54262;44.642;-0.974;2022-09-09T00:56:47;2.10;;;0.95;;
67378;SDS011;54262;44.642;-0.974;2022-09-09T01:01:36;2.40;;;1.20;;
67378;SDS011;54262;44.642;-0.974;2022-09-09T01:04:05;1.30;;;1.20;;
67378;SDS011;54262;44.642;-0.974;2022-09-09T01:06:35;0.95;;;0.63;;
67378;SDS011;54262;44.642;-0.974;2022-09-09T01:22:33;1.20;;;0.90;;
67378;SDS011;54262;44.642;-0.974;2022-09-09T01:27:35;1.52;;;1.05;;
67378;SDS011;54262;44.642;-0.974;2022-09-09T01:30:02;1.30;;;1.20;;
67378;SDS011;54262;44.642;-0.974;2022-09-09T01:32:43;1.23;;;1.00;;
67378;SDS011;54262;44.642;-0.974;2022-09-09T01:37:45;1.13;;;0.70;;
67378;SDS011;54262;44.642;-0.974;2022-09-09T01:40:11;2.20;;;0.90;;
67378;SDS011;54262;44.642;-0.974;2022-09-09T01:42:37;1.30;;;1.20;;
67378;SDS011;54262;44.642;-0.974;2022-09-09T01:45:04;1.67;;;0.80;;
67378;SDS011;54262;44.642;-0.974;2022-09-09T01:47:30;1.35;;;0.80;;
67378;SDS011;54262;44.642;-0.974;2022-09-09T01:49:56;0.93;;;0.93;;
67378;SDS011;54262;44.642;-0.974;2022-09-09T01:52:22;1.27;;;1.17;;
67378;SDS011;54262;44.642;-0.974;2022-09-09T01:54:48;4.00;;;1.20;;
67378;SDS011;54262;44.642;-0.974;2022-09-09T01:57:15;1.88;;;1.00;;
67378;SDS011;54262;44.642;-0.974;2022-09-09T02:04:52;1.05;;;0.95;;
67378;SDS011;54262;44.642;-0.974;2022-09-09T02:12:41;3.08;;;1.05;;
67378;SDS011;54262;44.642;-0.974;2022-09-09T02:15:11;2.08;;;0.90;;
67378;SDS011;54262;44.642;-0.974;2022-09-09T02:17:42;1.15;;;0.80;;
67378;SDS011;54262;44.642;-0.974;2022-09-09T02:20:10;1.15;;;0.80;;
67378;SDS011;54262;44.642;-0.974;2022-09-09T02:22:38;1.27;;;1.17;;
67378;SDS011;54262;44.642;-0.974;2022-09-09T02:25:05;1.30;;;0.85;;
67378;SDS011;54262;44.642;-0.974;2022-09-09T02:27:33;1.00;;;0.50;;
67378;SDS011;54262;44.642;-0.974;2022-09-09T02:30:00;2.05;;;0.82;;
67378;SDS011;54262;44.642;-0.974;2022-09-09T02:32:27;1.02;;;0.77;;
67378;SDS011;54262;44.642;-0.974;2022-09-09T02:35:00;0.80;;;0.70;;
67378;SDS011;54262;44.642;-0.974;2022-09-09T02:37:29;1.13;;;0.82;;
67378;SDS011;54262;44.642;-0.974;2022-09-09T02:39:58;1.77;;;0.68;;
67378;SDS011;54262;44.642;-0.974;2022-09-09T02:42:24;1.02;;;0.73;;
67378;SDS011;54262;44.642;-0.974;2022-09-09T02:44:50;2.05;;;1.08;;
67378;SDS011;54262;44.642;-0.974;2022-09-09T02:47:29;0.85;;;0.82;;
67378;SDS011;54262;44.642;-0.974;2022-09-09T02:50:02;2.05;;;1.02;;
67378;SDS011;54262;44.642;-0.974;2022-09-09T02:54:57;0.85;;;0.70;;
67378;SDS011;54262;44.642;-0.974;2022-09-09T02:57:26;1.27;;;0.90;;
67378;SDS011;54262;44.642;-0.974;2022-09-09T02:59:56;1.77;;;1.00;;
67378;SDS011;54262;44.642;-0.974;2022-09-09T03:02:22;2.63;;;0.90;;
67378;SDS011;54262;44.642;-0.974;2022-09-09T03:04:50;0.85;;;0.68;;
67378;SDS011;54262;44.642;-0.974;2022-09-09T03:07:20;0.85;;;0.63;;
67378;SDS011;54262;44.642;-0.974;2022-09-09T03:09:46;1.05;;;0.70;;
67378;SDS011;54262;44.642;-0.974;2022-09-09T03:12:13;1.10;;;0.82;;
67378;SDS011;54262;44.642;-0.974;2022-09-09T03:14:39;0.70;;;0.68;;
67378;SDS011;54262;44.642;-0.974;2022-09-09T03:17:05;2.90;;;1.00;;
67378;SDS011;54262;44.642;-0.974;2022-09-09T03:19:31;0.95;;;0.60;;
67378;SDS011;54262;44.642;-0.974;2022-09-09T03:21:58;2.05;;;0.80;;
67378;SDS011;54262;44.642;-0.974;2022-09-09T03:24:24;1.13;;;0.57;;
67378;SDS011;54262;44.642;-0.974;2022-09-09T03:26:50;1.92;;;0.80;;
67378;SDS011;54262;44.642;-0.974;2022-09-09T03:29:17;1.58;;;0.68;;
67378;SDS011;54262;44.642;-0.974;2022-09-09T03:31:43;0.85;;;0.50;;
67378;SDS011;54262;44.642;-0.974;2022-09-09T03:34:09;1.17;;;0.98;;
67378;SDS011;54262;44.642;-0.974;2022-09-09T03:36:36;0.63;;;0.60;;
67378;SDS011;54262;44.642;-0.974;2022-09-09T03:39:02;0.95;;;0.88;;
67378;SDS011;54262;44.642;-0.974;2022-09-09T03:41:29;1.05;;;0.60;;
67378;SDS011;54262;44.642;-0.974;2022-09-09T03:43:55;0.95;;;0.70;;
67378;SDS011;54262;44.642;-0.974;2022-09-09T03:46:22;1.40;;;0.73;;
67378;SDS011;54262;44.642;-0.974;2022-09-09T03:48:49;0.90;;;0.73;;
67378;SDS011;54262;44.642;-0.974;2022-09-09T03:51:15;1.33;;;0.90;;
67378;SDS011;54262;44.642;-0.974;2022-09-09T03:53:42;1.25;;;0.70;;
67378;SDS011;54262;44.642;-0.974;2022-09-09T03:56:08;4.32;;;0.75;;
67378;SDS011;54262;44.642;-0.974;2022-09-09T03:58:35;0.82;;;0.80;;
67378;SDS011;54262;44.642;-0.974;2022-09-09T04:01:02;0.75;;;0.45;;
67378;SDS011;54262;44.642;-0.974;2022-09-09T04:03:29;1.35;;;0.70;;
67378;SDS011;54262;44.642;-0.974;2022-09-09T04:05:56;0.80;;;0.80;;
67378;SDS011;54262;44.642;-0.974;2022-09-09T04:08:23;1.55;;;1.08;;
67378;SDS011;54262;44.642;-0.974;2022-09-09T04:10:52;1.08;;;0.90;;
67378;SDS011;54262;44.642;-0.974;2022-09-09T04:13:23;1.85;;;0.80;;
67378;SDS011;54262;44.642;-0.974;2022-09-09T04:15:50;1.25;;;0.77;;
67378;SDS011;54262;44.642;-0.974;2022-09-09T04:18:16;1.77;;;0.77;;
67378;SDS011;54262;44.642;-0.974;2022-09-09T04:20:42;1.88;;;1.00;;
67378;SDS011;54262;44.642;-0.974;2022-09-09T04:23:08;1.73;;;0.70;;
67378;SDS011;54262;44.642;-0.974;2022-09-09T04:25:35;0.80;;;0.65;;
67378;SDS011;54262;44.642;-0.974;2022-09-09T04:28:01;0.65;;;0.63;;
67378;SDS011;54262;44.642;-0.974;2022-09-09T04:30:27;1.17;;;0.60;;
67378;SDS011;54262;44.642;-0.974;2022-09-09T04:32:53;2.25;;;0.98;;
67378;SDS011;54262;44.642;-0.974;2022-09-09T04:35:19;0.77;;;0.70;;
67378;SDS011;54262;44.642;-0.974;2022-09-09T04:37:46;1.30;;;0.57;;
67378;SDS011;54262;44.642;-0.974;2022-09-09T04:40:13;1.27;;;0.65;;
67378;SDS011;54262;44.642;-0.974;2022-09-09T04:42:40;1.02;;;0.60;;
67378;SDS011;54262;44.642;-0.974;2022-09-09T04:45:09;1.83;;;1.10;;
67378;SDS011;54262;44.642;-0.974;2022-09-09T04:47:36;1.52;;;0.73;;
67378;SDS011;54262;44.642;-0.974;2022-09-09T04:50:03;0.93;;;0.52;;
67378;SDS011;54262;44.642;-0.974;2022-09-09T04:52:30;1.27;;;0.88;;
67378;SDS011;54262;44.642;-0.974;2022-09-09T04:54:56;0.68;;;0.60;;
67378;SDS011;54262;44.642;-0.974;2022-09-09T04:57:22;1.02;;;0.75;;
67378;SDS011;54262;44.642;-0.974;2022-09-09T04:59:49;1.02;;;0.63;;
67378;SDS011;54262;44.642;-0.974;2022-09-09T05:02:15;1.83;;;0.60;;
67378;SDS011;54262;44.642;-0.974;2022-09-09T05:04:41;0.70;;;0.60;;
67378;SDS011;54262;44.642;-0.974;2022-09-09T05:07:07;1.08;;;0.68;;
67378;SDS011;54262;44.642;-0.974;2022-09-09T05:09:33;3.35;;;0.80;;
67378;SDS011;54262;44.642;-0.974;2022-09-09T05:11:59;5.50;;;0.75;;
67378;SDS011;54262;44.642;-0.974;2022-09-09T05:14:25;1.98;;;0.50;;
67378;SDS011;54262;44.642;-0.974;2022-09-09T05:16:52;1.35;;;0.60;;
67378;SDS011;54262;44.642;-0.974;2022-09-09T05:19:18;1.42;;;0.68;;
67378;SDS011;54262;44.642;-0.974;2022-09-09T05:21:45;5.25;;;0.80;;
67378;SDS011;54262;44.642;-0.974;2022-09-09T05:24:11;1.02;;;0.80;;
67378;SDS011;54262;44.642;-0.974;2022-09-09T05:26:37;0.63;;;0.57;;
67378;SDS011;54262;44.642;-0.974;2022-09-09T05:29:03;1.98;;;0.77;;
67378;SDS011;54262;44.642;-0.974;2022-09-09T05:31:30;1.02;;;0.70;;
67378;SDS011;54262;44.642;-0.974;2022-09-09T05:33:56;1.30;;;0.73;;
67378;SDS011;54262;44.642;-0.974;2022-09-09T05:36:23;1.23;;;0.70;;
67378;SDS011;54262;44.642;-0.974;2022-09-09T05:38:50;1.17;;;0.80;;
67378;SDS011;54262;44.642;-0.974;2022-09-09T05:41:18;1.17;;;0.80;;
67378;SDS011;54262;44.642;-0.974;2022-09-09T05:43:45;0.88;;;0.63;;
67378;SDS011;54262;44.642;-0.974;2022-09-09T05:46:15;2.92;;;0.43;;
67378;SDS011;54262;44.642;-0.974;2022-09-09T05:48:42;1.80;;;0.70;;
67378;SDS011;54262;44.642;-0.974;2022-09-09T05:51:12;1.75;;;0.70;;
67378;SDS011;54262;44.642;-0.974;2022-09-09T05:53:40;1.30;;;0.90;;
67378;SDS011;54262;44.642;-0.974;2022-09-09T05:58:36;1.58;;;0.73;;
67378;SDS011;54262;44.642;-0.974;2022-09-09T06:01:45;2.55;;;0.70;;
67378;SDS011;54262;44.642;-0.974;2022-09-09T06:03:52;1.25;;;0.82;;
67378;SDS011;54262;44.642;-0.974;2022-09-09T06:06:19;0.57;;;0.45;;
67378;SDS011;54262;44.642;-0.974;2022-09-09T06:08:46;1.48;;;0.73;;
67378;SDS011;54262;44.642;-0.974;2022-09-09T06:11:17;1.13;;;0.82;;
67378;SDS011;54262;44.642;-0.974;2022-09-09T06:13:43;1.35;;;0.60;;
67378;SDS011;54262;44.642;-0.974;2022-09-09T06:16:12;2.05;;;0.90;;
67378;SDS011;54262;44.642;-0.974;2022-09-09T06:18:39;3.00;;;0.85;;
67378;SDS011;54262;44.642;-0.974;2022-09-09T06:21:06;14.63;;;1.40;;
67378;SDS011;54262;44.642;-0.974;2022-09-09T06:23:33;2.90;;;0.50;;
67378;SDS011;54262;44.642;-0.974;2022-09-09T06:26:06;4.05;;;0.75;;
67378;SDS011;54262;44.642;-0.974;2022-09-09T06:28:33;2.63;;;1.00;;
67378;SDS011;54262;44.642;-0.974;2022-09-09T06:31:03;6.05;;;0.90;;
67378;SDS011;54262;44.642;-0.974;2022-09-09T06:33:33;3.30;;;1.02;;
67378;SDS011;54262;44.642;-0.974;2022-09-09T06:36:04;9.90;;;1.92;;
67378;SDS011;54262;44.642;-0.974;2022-09-09T06:38:30;5.32;;;1.45;;
67378;SDS011;54262;44.642;-0.974;2022-09-09T06:40:57;10.90;;;1.27;;
67378;SDS011;54262;44.642;-0.974;2022-09-09T06:43:24;9.82;;;1.30;;
67378;SDS011;54262;44.642;-0.974;2022-09-09T06:45:54;7.72;;;1.40;;
67378;SDS011;54262;44.642;-0.974;2022-09-09T06:48:20;10.02;;;1.42;;
67378;SDS011;54262;44.642;-0.974;2022-09-09T06:50:46;9.98;;;1.42;;
67378;SDS011;54262;44.642;-0.974;2022-09-09T06:53:16;9.32;;;1.27;;
67378;SDS011;54262;44.642;-0.974;2022-09-09T06:55:44;7.47;;;1.35;;
67378;SDS011;54262;44.642;-0.974;2022-09-09T06:58:10;15.20;;;2.03;;
67378;SDS011;54262;44.642;-0.974;2022-09-09T07:00:36;9.18;;;1.67;;
67378;SDS011;54262;44.642;-0.974;2022-09-09T07:03:06;11.20;;;1.80;;
67378;SDS011;54262;44.642;-0.974;2022-09-09T07:05:32;9.32;;;1.15;;
67378;SDS011;54262;44.642;-0.974;2022-09-09T07:07:59;14.77;;;1.60;;
67378;SDS011;54262;44.642;-0.974;2022-09-09T07:10:25;13.38;;;1.50;;
67378;SDS011;54262;44.642;-0.974;2022-09-09T07:12:51;14.60;;;1.90;;
67378;SDS011;54262;44.642;-0.974;2022-09-09T07:15:18;8.80;;;1.50;;
67378;SDS011;54262;44.642;-0.974;2022-09-09T07:17:44;9.82;;;1.75;;
67378;SDS011;54262;44.642;-0.974;2022-09-09T07:20:11;10.05;;;1.23;;
67378;SDS011;54262;44.642;-0.974;2022-09-09T07:22:37;12.75;;;1.70;;
67378;SDS011;54262;44.642;-0.974;2022-09-09T07:25:03;6.40;;;1.40;;
67378;SDS011;54262;44.642;-0.974;2022-09-09T07:27:30;8.43;;;1.42;;
67378;SDS011;54262;44.642;-0.974;2022-09-09T07:29:56;20.30;;;2.15;;
67378;SDS011;54262;44.642;-0.974;2022-09-09T07:32:23;19.20;;;1.92;;
67378;SDS011;54262;44.642;-0.974;2022-09-09T07:34:50;13.35;;;1.73;;
67378;SDS011;54262;44.642;-0.974;2022-09-09T07:37:16;22.90;;;2.08;;
67378;SDS011;54262;44.642;-0.974;2022-09-09T07:39:43;6.85;;;1.73;;
67378;SDS011;54262;44.642;-0.974;2022-09-09T07:42:09;11.27;;;1.60;;
67378;SDS011;54262;44.642;-0.974;2022-09-09T07:44:36;12.48;;;1.92;;
67378;SDS011;54262;44.642;-0.974;2022-09-09T07:47:04;15.15;;;1.38;;
67378;SDS011;54262;44.642;-0.974;2022-09-09T07:49:31;29.00;;;1.98;;
67378;SDS011;54262;44.642;-0.974;2022-09-09T07:51:57;13.80;;;1.92;;
67378;SDS011;54262;44.642;-0.974;2022-09-09T07:54:24;12.90;;;2.13;;
67378;SDS011;54262;44.642;-0.974;2022-09-09T07:56:51;11.10;;;1.58;;
67378;SDS011;54262;44.642;-0.974;2022-09-09T07:59:17;7.20;;;1.25;;
67378;SDS011;54262;44.642;-0.974;2022-09-09T08:01:48;17.98;;;1.42;;
67378;SDS011;54262;44.642;-0.974;2022-09-09T08:04:18;19.15;;;1.48;;
67378;SDS011;54262;44.642;-0.974;2022-09-09T08:06:55;8.98;;;1.73;;
67378;SDS011;54262;44.642;-0.974;2022-09-09T08:09:22;12.32;;;1.50;;
67378;SDS011;54262;44.642;-0.974;2022-09-09T08:11:53;11.68;;;1.42;;
67378;SDS011;54262;44.642;-0.974;2022-09-09T08:14:20;15.73;;;2.40;;
67378;SDS011;54262;44.642;-0.974;2022-09-09T08:16:47;14.45;;;1.80;;
67378;SDS011;54262;44.642;-0.974;2022-09-09T08:19:14;5.35;;;1.23;;
67378;SDS011;54262;44.642;-0.974;2022-09-09T08:21:40;5.93;;;1.48;;
67378;SDS011;54262;44.642;-0.974;2022-09-09T08:24:07;4.22;;;1.23;;
67378;SDS011;54262;44.642;-0.974;2022-09-09T08:26:45;6.85;;;1.70;;
67378;SDS011;54262;44.642;-0.974;2022-09-09T08:29:12;8.45;;;1.20;;
67378;SDS011;54262;44.642;-0.974;2022-09-09T08:31:48;6.63;;;1.17;;
67378;SDS011;54262;44.642;-0.974;2022-09-09T08:34:14;4.05;;;1.42;;
67378;SDS011;54262;44.642;-0.974;2022-09-09T08:36:42;6.70;;;1.48;;
67378;SDS011;54262;44.642;-0.974;2022-09-09T08:39:09;5.07;;;1.15;;
67378;SDS011;54262;44.642;-0.974;2022-09-09T08:52:15;9.65;;;1.20;;
67378;SDS011;54262;44.642;-0.974;2022-09-09T08:54:43;7.40;;;0.93;;
67378;SDS011;54262;44.642;-0.974;2022-09-09T08:57:20;6.20;;;1.15;;
67378;SDS011;54262;44.642;-0.974;2022-09-09T08:59:48;7.07;;;1.60;;
67378;SDS011;54262;44.642;-0.974;2022-09-09T09:02:17;3.42;;;0.85;;
67378;SDS011;54262;44.642;-0.974;2022-09-09T09:07:16;4.82;;;1.23;;
67378;SDS011;54262;44.642;-0.974;2022-09-09T09:12:39;23.15;;;1.30;;
67378;SDS011;54262;44.642;-0.974;2022-09-09T09:15:27;6.65;;;1.00;;
67378;SDS011;54262;44.642;-0.974;2022-09-09T09:17:52;5.30;;;1.48;;
67378;SDS011;54262;44.642;-0.974;2022-09-09T09:20:22;8.38;;;1.50;;
67378;SDS011;54262;44.642;-0.974;2022-09-09T09:22:51;3.47;;;1.20;;
67378;SDS011;54262;44.642;-0.974;2022-09-09T09:30:35;6.95;;;1.27;;
67378;SDS011;54262;44.642;-0.974;2022-09-09T09:33:03;8.65;;;1.60;;
67378;SDS011;54262;44.642;-0.974;2022-09-09T09:35:31;5.60;;;1.30;;
67378;SDS011;54262;44.642;-0.974;2022-09-09T09:37:58;11.45;;;1.73;;
67378;SDS011;54262;44.642;-0.974;2022-09-09T09:40:26;7.40;;;1.38;;
67378;SDS011;54262;44.642;-0.974;2022-09-09T09:48:12;3.88;;;1.50;;
67378;SDS011;54262;44.642;-0.974;2022-09-09T09:50:49;10.00;;;1.23;;
67378;SDS011;54262;44.642;-0.974;2022-09-09T09:53:19;4.03;;;0.98;;
67378;SDS011;54262;44.642;-0.974;2022-09-09T09:55:51;8.20;;;1.40;;
67378;SDS011;54262;44.642;-0.974;2022-09-09T09:58:18;6.80;;;1.13;;
67378;SDS011;54262;44.642;-0.974;2022-09-09T10:00:48;8.15;;;1.50;;
67378;SDS011;54262;44.642;-0.974;2022-09-09T10:03:22;9.13;;;1.00;;
67378;SDS011;54262;44.642;-0.974;2022-09-09T10:05:48;8.50;;;0.93;;
67378;SDS011;54262;44.642;-0.974;2022-09-09T10:08:15;3.58;;;1.25;;
67378;SDS011;54262;44.642;-0.974;2022-09-09T10:13:28;5.47;;;1.30;;
67378;SDS011;54262;44.642;-0.974;2022-09-09T10:18:55;2.38;;;1.05;;
67378;SDS011;54262;44.642;-0.974;2022-09-09T10:42:54;9.55;;;1.65;;
67378;SDS011;54262;44.642;-0.974;2022-09-09T10:45:26;7.57;;;1.40;;
67378;SDS011;54262;44.642;-0.974;2022-09-09T10:48:14;4.20;;;1.15;;
67378;SDS011;54262;44.642;-0.974;2022-09-09T10:50:48;7.80;;;1.30;;
67378;SDS011;54262;44.642;-0.974;2022-09-09T10:56:01;5.60;;;0.85;;
67378;SDS011;54262;44.642;-0.974;2022-09-09T10:58:31;7.05;;;1.35;;
67378;SDS011;54262;44.642;-0.974;2022-09-09T11:01:02;7.53;;;1.30;;
67378;SDS011;54262;44.642;-0.974;2022-09-09T11:03:32;5.68;;;1.10;;
67378;SDS011;54262;44.642;-0.974;2022-09-09T11:06:05;8.70;;;1.55;;
67378;SDS011;54262;44.642;-0.974;2022-09-09T11:08:35;3.97;;;0.80;;
67378;SDS011;54262;44.642;-0.974;2022-09-09T11:11:04;2.55;;;1.05;;
67378;SDS011;54262;44.642;-0.974;2022-09-09T11:21:43;4.65;;;1.20;;
67378;SDS011;54262;44.642;-0.974;2022-09-09T11:24:16;4.60;;;1.05;;
67378;SDS011;54262;44.642;-0.974;2022-09-09T11:34:18;7.45;;;1.17;;
67378;SDS011;54262;44.642;-0.974;2022-09-09T11:36:54;4.07;;;1.30;;
67378;SDS011;54262;44.642;-0.974;2022-09-09T11:44:52;4.60;;;0.93;;
67378;SDS011;54262;44.642;-0.974;2022-09-09T11:47:29;4.50;;;1.13;;
67378;SDS011;54262;44.642;-0.974;2022-09-09T11:50:07;4.88;;;0.98;;
67378;SDS011;54262;44.642;-0.974;2022-09-09T11:52:37;4.60;;;1.25;;
67378;SDS011;54262;44.642;-0.974;2022-09-09T11:55:10;8.35;;;0.95;;
67378;SDS011;54262;44.642;-0.974;2022-09-09T11:57:37;9.05;;;1.27;;
67378;SDS011;54262;44.642;-0.974;2022-09-09T12:00:04;4.72;;;1.00;;
67378;SDS011;54262;44.642;-0.974;2022-09-09T12:02:47;5.13;;;1.25;;
67378;SDS011;54262;44.642;-0.974;2022-09-09T12:05:16;7.40;;;0.93;;
67378;SDS011;54262;44.642;-0.974;2022-09-09T12:12:44;12.85;;;1.25;;
67378;SDS011;54262;44.642;-0.974;2022-09-09T12:17:43;5.43;;;0.93;;
67378;SDS011;54262;44.642;-0.974;2022-09-09T12:20:15;10.80;;;1.40;;
67378;SDS011;54262;44.642;-0.974;2022-09-09T12:30:39;15.02;;;1.10;;
67378;SDS011;54262;44.642;-0.974;2022-09-09T12:33:11;4.03;;;1.20;;
67378;SDS011;54262;44.642;-0.974;2022-09-09T12:35:41;20.23;;;1.40;;
67378;SDS011;54262;44.642;-0.974;2022-09-09T12:38:10;17.95;;;1.20;;
67378;SDS011;54262;44.642;-0.974;2022-09-09T12:40:38;7.20;;;1.00;;
67378;SDS011;54262;44.642;-0.974;2022-09-09T12:43:17;8.93;;;1.00;;
67378;SDS011;54262;44.642;-0.974;2022-09-09T12:45:44;9.25;;;0.80;;
67378;SDS011;54262;44.642;-0.974;2022-09-09T12:48:11;2.42;;;0.50;;
67378;SDS011;54262;44.642;-0.974;2022-09-09T12:50:45;2.10;;;0.70;;
67378;SDS011;54262;44.642;-0.974;2022-09-09T12:55:48;8.52;;;0.75;;
67378;SDS011;54262;44.642;-0.974;2022-09-09T12:58:14;2.10;;;0.68;;
67378;SDS011;54262;44.642;-0.974;2022-09-09T13:00:50;3.60;;;0.50;;
67378;SDS011;54262;44.642;-0.974;2022-09-09T13:03:17;4.78;;;0.57;;
67378;SDS011;54262;44.642;-0.974;2022-09-09T13:05:45;3.47;;;1.08;;
67378;SDS011;54262;44.642;-0.974;2022-09-09T13:08:12;9.77;;;0.88;;
67378;SDS011;54262;44.642;-0.974;2022-09-09T13:10:46;3.13;;;0.70;;
67378;SDS011;54262;44.642;-0.974;2022-09-09T13:13:13;7.07;;;0.82;;
67378;SDS011;54262;44.642;-0.974;2022-09-09T13:15:47;6.63;;;0.70;;
67378;SDS011;54262;44.642;-0.974;2022-09-09T13:18:20;4.90;;;1.15;;
67378;SDS011;54262;44.642;-0.974;2022-09-09T13:20:47;8.73;;;0.77;;
67378;SDS011;54262;44.642;-0.974;2022-09-09T13:23:14;2.47;;;0.70;;
67378;SDS011;54262;44.642;-0.974;2022-09-09T13:25:42;3.00;;;0.70;;
67378;SDS011;54262;44.642;-0.974;2022-09-09T13:28:20;6.93;;;0.80;;
67378;SDS011;54262;44.642;-0.974;2022-09-09T13:30:54;4.57;;;0.73;;
67378;SDS011;54262;44.642;-0.974;2022-09-09T13:33:24;7.22;;;1.13;;
67378;SDS011;54262;44.642;-0.974;2022-09-09T13:35:58;2.85;;;0.90;;
67378;SDS011;54262;44.642;-0.974;2022-09-09T13:38:25;4.55;;;0.95;;
67378;SDS011;54262;44.642;-0.974;2022-09-09T13:40:55;6.40;;;0.93;;
67378;SDS011;54262;44.642;-0.974;2022-09-09T13:43:22;9.05;;;1.13;;
67378;SDS011;54262;44.642;-0.974;2022-09-09T13:45:57;2.90;;;0.82;;
67378;SDS011;54262;44.642;-0.974;2022-09-09T13:48:23;2.83;;;0.80;;
67378;SDS011;54262;44.642;-0.974;2022-09-09T13:51:22;3.50;;;0.80;;
67378;SDS011;54262;44.642;-0.974;2022-09-09T13:53:39;2.50;;;0.82;;
67378;SDS011;54262;44.642;-0.974;2022-09-09T13:56:05;2.95;;;0.80;;
67378;SDS011;54262;44.642;-0.974;2022-09-09T13:58:31;9.48;;;1.00;;
67378;SDS011;54262;44.642;-0.974;2022-09-09T14:00:57;3.50;;;1.17;;
67378;SDS011;54262;44.642;-0.974;2022-09-09T14:03:24;3.88;;;1.67;;
67378;SDS011;54262;44.642;-0.974;2022-09-09T14:05:50;7.05;;;1.20;;
67378;SDS011;54262;44.642;-0.974;2022-09-09T14:08:20;6.38;;;1.50;;
67378;SDS011;54262;44.642;-0.974;2022-09-09T14:10:47;6.88;;;0.95;;
67378;SDS011;54262;44.642;-0.974;2022-09-09T14:13:13;5.32;;;1.02;;
67378;SDS011;54262;44.642;-0.974;2022-09-09T14:15:40;14.35;;;1.05;;
67378;SDS011;54262;44.642;-0.974;2022-09-09T14:18:09;5.88;;;1.10;;
67378;SDS011;54262;44.642;-0.974;2022-09-09T14:20:35;8.23;;;0.90;;
67378;SDS011;54262;44.642;-0.974;2022-09-09T14:23:02;4.10;;;0.90;;
67378;SDS011;54262;44.642;-0.974;2022-09-09T14:25:28;5.72;;;0.85;;
67378;SDS011;54262;44.642;-0.974;2022-09-09T14:27:54;6.97;;;0.80;;
67378;SDS011;54262;44.642;-0.974;2022-09-09T14:30:21;7.40;;;0.90;;
67378;SDS011;54262;44.642;-0.974;2022-09-09T14:32:47;1.98;;;0.73;;
67378;SDS011;54262;44.642;-0.974;2022-09-09T14:35:13;6.22;;;1.30;;
67378;SDS011;54262;44.642;-0.974;2022-09-09T14:37:39;12.93;;;1.52;;
67378;SDS011;54262;44.642;-0.974;2022-09-09T14:40:05;9.20;;;1.30;;
67378;SDS011;54262;44.642;-0.974;2022-09-09T14:42:32;2.95;;;0.68;;
67378;SDS011;54262;44.642;-0.974;2022-09-09T14:44:58;6.50;;;1.65;;
67378;SDS011;54262;44.642;-0.974;2022-09-09T14:47:24;13.70;;;1.02;;
67378;SDS011;54262;44.642;-0.974;2022-09-09T14:49:51;7.13;;;0.82;;
67378;SDS011;54262;44.642;-0.974;2022-09-09T14:52:18;11.15;;;1.48;;
67378;SDS011;54262;44.642;-0.974;2022-09-09T14:54:45;11.45;;;1.15;;
67378;SDS011;54262;44.642;-0.974;2022-09-09T14:57:11;14.35;;;2.22;;
67378;SDS011;54262;44.642;-0.974;2022-09-09T14:59:37;11.40;;;1.35;;
67378;SDS011;54262;44.642;-0.974;2022-09-09T15:02:03;8.23;;;1.00;;
67378;SDS011;54262;44.642;-0.974;2022-09-09T15:04:29;12.82;;;1.88;;
67378;SDS011;54262;44.642;-0.974;2022-09-09T15:06:55;15.27;;;0.95;;
67378;SDS011;54262;44.642;-0.974;2022-09-09T15:09:22;5.25;;;0.93;;
67378;SDS011;54262;44.642;-0.974;2022-09-09T15:11:48;3.42;;;0.93;;
67378;SDS011;54262;44.642;-0.974;2022-09-09T15:14:14;3.17;;;0.90;;
67378;SDS011;54262;44.642;-0.974;2022-09-09T15:16:40;9.60;;;1.30;;
67378;SDS011;54262;44.642;-0.974;2022-09-09T15:19:06;5.57;;;1.25;;
67378;SDS011;54262;44.642;-0.974;2022-09-09T15:21:34;10.15;;;0.90;;
67378;SDS011;54262;44.642;-0.974;2022-09-09T15:24:01;4.20;;;1.25;;
67378;SDS011;54262;44.642;-0.974;2022-09-09T15:26:28;4.90;;;0.73;;
67378;SDS011;54262;44.642;-0.974;2022-09-09T15:28:55;2.70;;;1.08;;
67378;SDS011;54262;44.642;-0.974;2022-09-09T15:31:26;2.88;;;0.88;;
67378;SDS011;54262;44.642;-0.974;2022-09-09T15:33:56;4.75;;;0.98;;
67378;SDS011;54262;44.642;-0.974;2022-09-09T15:36:26;2.72;;;1.35;;
67378;SDS011;54262;44.642;-0.974;2022-09-09T15:38:53;2.88;;;1.15;;
67378;SDS011;54262;44.642;-0.974;2022-09-09T15:41:20;6.18;;;0.70;;
67378;SDS011;54262;44.642;-0.974;2022-09-09T15:43:48;2.78;;;0.90;;
67378;SDS011;54262;44.642;-0.974;2022-09-09T15:48:40;3.13;;;1.00;;
67378;SDS011;54262;44.642;-0.974;2022-09-09T15:51:07;2.35;;;0.75;;
67378;SDS011;54262;44.642;-0.974;2022-09-09T15:53:34;4.75;;;0.80;;
67378;SDS011;54262;44.642;-0.974;2022-09-09T15:56:00;1.38;;;1.00;;
67378;SDS011;54262;44.642;-0.974;2022-09-09T15:58:29;3.13;;;0.98;;
67378;SDS011;54262;44.642;-0.974;2022-09-09T16:01:06;3.53;;;0.63;;
67378;SDS011;54262;44.642;-0.974;2022-09-09T16:03:35;2.83;;;1.05;;
67378;SDS011;54262;44.642;-0.974;2022-09-09T16:06:02;3.08;;;0.68;;
67378;SDS011;54262;44.642;-0.974;2022-09-09T16:08:34;1.83;;;0.65;;
67378;SDS011;54262;44.642;-0.974;2022-09-09T16:11:08;1.95;;;0.70;;
67378;SDS011;54262;44.642;-0.974;2022-09-09T16:13:39;2.30;;;0.80;;
67378;SDS011;54262;44.642;-0.974;2022-09-09T16:16:05;2.90;;;0.98;;
67378;SDS011;54262;44.642;-0.974;2022-09-09T16:18:35;2.08;;;0.70;;
67378;SDS011;54262;44.642;-0.974;2022-09-09T16:21:02;3.92;;;0.70;;
67378;SDS011;54262;44.642;-0.974;2022-09-09T16:23:29;2.83;;;0.80;;
67378;SDS011;54262;44.642;-0.974;2022-09-09T16:25:56;2.78;;;0.82;;
67378;SDS011;54262;44.642;-0.974;2022-09-09T16:28:22;3.40;;;1.00;;
67378;SDS011;54262;44.642;-0.974;2022-09-09T16:30:48;4.28;;;1.13;;
67378;SDS011;54262;44.642;-0.974;2022-09-09T16:33:15;2.58;;;0.70;;
67378;SDS011;54262;44.642;-0.974;2022-09-09T16:35:41;3.72;;;0.85;;
67378;SDS011;54262;44.642;-0.974;2022-09-09T16:38:08;1.70;;;0.85;;
67378;SDS011;54262;44.642;-0.974;2022-09-09T16:40:35;3.47;;;0.70;;
67378;SDS011;54262;44.642;-0.974;2022-09-09T16:43:01;3.72;;;1.02;;
67378;SDS011;54262;44.642;-0.974;2022-09-09T16:45:27;2.28;;;0.70;;
67378;SDS011;54262;44.642;-0.974;2022-09-09T16:47:54;3.00;;;0.90;;
67378;SDS011;54262;44.642;-0.974;2022-09-09T16:50:20;2.15;;;0.90;;
67378;SDS011;54262;44.642;-0.974;2022-09-09T16:52:47;2.90;;;0.80;;
67378;SDS011;54262;44.642;-0.974;2022-09-09T16:55:13;4.60;;;0.90;;
67378;SDS011;54262;44.642;-0.974;2022-09-09T16:57:39;1.52;;;0.88;;
67378;SDS011;54262;44.642;-0.974;2022-09-09T17:00:06;4.07;;;0.68;;
67378;SDS011;54262;44.642;-0.974;2022-09-09T17:02:33;3.42;;;1.00;;
67378;SDS011;54262;44.642;-0.974;2022-09-09T17:04:59;1.27;;;0.57;;
67378;SDS011;54262;44.642;-0.974;2022-09-09T17:07:25;2.13;;;0.68;;
67378;SDS011;54262;44.642;-0.974;2022-09-09T17:09:52;1.70;;;0.77;;
67378;SDS011;54262;44.642;-0.974;2022-09-09T17:12:19;7.72;;;0.85;;
67378;SDS011;54262;44.642;-0.974;2022-09-09T17:14:46;2.13;;;0.70;;
67378;SDS011;54262;44.642;-0.974;2022-09-09T17:17:12;2.33;;;0.63;;
67378;SDS011;54262;44.642;-0.974;2022-09-09T17:19:38;1.75;;;0.60;;